チューリッヒ の空港の天気 - METARとTAF

チューリヒ国際空港 ( LSZH / ZRH ) - スイス チューリッヒ
飛行場実況気象(Metar)
観測時間04/25 18:20 CEST (04/25 16:20 UTC)
風向・風速南西 2m/s
視程5000m
天気現象
少しの雲 雲底高度 180m
全天の4割程度の雲 雲底高度 400m
全天の8割程度の雲 雲底高度 1220m
気温8℃
湿度93%
気圧1008hPa
METARLSZH 251620Z 22004KT 160V250 5000 RA FEW006 SCT013 BKN040 08/07 Q1008 NOSIG
過去の天気等 Google飛行場航空写真 Wunderground天気予報

過去48時間のMETAR

飛行場予報(TAF)
発表時間: 4/25 16:25 CEST (4/25 14:25 UTC)
予報対象時間: 25日17時 CEST ~ 26日23時 CEST
風向・風速西南西 4m/s
視程6,000m
少しの雲 雲底高度 910m
全天の8割程度の雲 雲底高度 1,830m
25日17時 CEST ~ 25日20時 CEST に一時的に
風向・風速西北西 5m/s
25日17時 CEST ~ 25日22時 CEST に一時的に
視程4,000m
天気現象しゅう雨
25日17時 CEST ~ 25日19時 CEST に 確率 30% で一時的に
風向・風速西北西 8m/s 瞬間風速 13m/s
全天の4割程度の塔状積雲 雲底高度 1,520m
25日22時 CEST ~ 26日1時 CEST に徐々に
視程4,000m
天気現象
全天の8割程度の雲 雲底高度 400m
26日1時 CEST ~ 26日16時 CEST に 確率 40% で一時的に
風向・風速北北東 3m/s
26日4時 CEST ~ 26日8時 CEST に 確率 40% で一時的に
視程2,000m
天気現象雨雪
全天の8割程度の雲 雲底高度 240m
26日11時 CEST ~ 26日14時 CEST に徐々に
視程8,000m
全天の8割程度の雲 雲底高度 1,070m
26日11時 CEST ~ 26日17時 CEST に一時的に
天気現象しゅう雨
TAF LSZH 251425Z 2515/2621 25007KT 6000 FEW030 BKN060 TX09/2515Z TN03/2605Z TX06/2612Z
TEMPO 2515/2518 30010KT
TEMPO 2515/2520 4000 SHRA
PROB30 TEMPO 2515/2517 30015G25KT SCT050TCU
BECMG 2520/2523 4000 RA BKN013
PROB40 TEMPO 2523/2614 03005KT
PROB40 TEMPO 2602/2606 2000 RASN BKN008
BECMG 2609/2612 8000 BKN035
TEMPO 2609/2615 SHRA